createdAt,value
2023-03-24T00:01:07.573Z,32.13
2023-03-24T00:03:38.114Z,32.03
2023-03-24T00:06:09.372Z,31.69
2023-03-24T00:08:38.772Z,32.02
2023-03-24T00:11:11.700Z,31.92
2023-03-24T00:13:41.367Z,32.13
2023-03-24T00:16:13.182Z,32.06
2023-03-24T00:18:43.118Z,32.07
2023-03-24T00:21:13.629Z,32.33
2023-03-24T00:23:42.904Z,32.24
2023-03-24T00:26:15.606Z,32.39
2023-03-24T00:28:46.189Z,32.49
2023-03-24T00:31:16.410Z,32.58
2023-03-24T00:33:51.013Z,32.67
2023-03-24T00:36:23.179Z,32.76
2023-03-24T00:38:52.312Z,32.72
2023-03-24T00:41:21.476Z,32.77
2023-03-24T00:43:51.122Z,33.09
2023-03-24T00:46:28.619Z,33.13
2023-03-24T00:49:03.688Z,33.10
2023-03-24T00:51:34.462Z,33.22
2023-03-24T00:54:03.921Z,33.42
2023-03-24T00:56:37.984Z,33.64
2023-03-24T00:59:10.001Z,33.62
2023-03-24T01:01:41.273Z,33.63
2023-03-24T01:04:11.513Z,33.61
2023-03-24T01:06:41.253Z,33.64
2023-03-24T01:09:10.706Z,33.76
2023-03-24T01:11:42.050Z,34.03
2023-03-24T01:14:12.013Z,34.22
2023-03-24T01:16:41.023Z,34.00
2023-03-24T01:19:11.298Z,34.14
2023-03-24T01:21:42.356Z,34.45
2023-03-24T01:24:13.644Z,34.26
2023-03-24T01:26:42.276Z,34.35
2023-03-24T01:29:11.470Z,34.56
2023-03-24T01:31:40.089Z,34.63
2023-03-24T01:34:09.957Z,34.35
2023-03-24T01:36:38.394Z,34.37
2023-03-24T01:39:06.836Z,34.45
2023-03-24T01:41:40.953Z,34.28
2023-03-24T01:44:29.944Z,34.40
2023-03-24T01:46:59.308Z,34.10
2023-03-24T01:49:34.468Z,34.21
2023-03-24T01:52:08.605Z,34.26
2023-03-24T01:54:43.030Z,34.25
2023-03-24T01:57:16.220Z,34.37
2023-03-24T01:59:49.696Z,34.36
2023-03-24T02:02:22.253Z,34.37
2023-03-24T02:04:56.748Z,34.42
2023-03-24T02:07:34.776Z,34.11
2023-03-24T02:10:07.188Z,34.17
2023-03-24T02:12:36.816Z,34.36
2023-03-24T02:15:07.658Z,34.30
2023-03-24T02:18:02.218Z,34.54
2023-03-24T02:21:36.725Z,34.26
2023-03-24T02:25:04.938Z,34.56
2023-03-24T02:28:06.705Z,34.66
2023-03-24T02:31:04.121Z,34.56
2023-03-24T02:34:22.021Z,34.57
2023-03-24T02:37:33.922Z,34.69
2023-03-24T02:40:19.744Z,34.71
2023-03-24T02:43:06.126Z,34.68
2023-03-24T02:45:40.029Z,34.65
2023-03-24T02:48:24.533Z,34.87
2023-03-24T02:51:06.086Z,34.72
2023-03-24T02:53:46.741Z,34.84
2023-03-24T02:56:25.126Z,35.04
2023-03-24T02:58:58.285Z,35.04
2023-03-24T03:01:32.654Z,35.13
2023-03-24T03:04:08.584Z,35.27
2023-03-24T03:06:40.742Z,35.38
2023-03-24T03:09:13.390Z,35.42
2023-03-24T03:11:48.769Z,35.36
2023-03-24T03:14:23.572Z,35.49
2023-03-24T03:16:59.996Z,35.36
2023-03-24T03:19:34.632Z,35.27
2023-03-24T03:22:06.225Z,35.42
2023-03-24T03:24:40.854Z,35.31
2023-03-24T03:27:15.737Z,35.53
2023-03-24T03:29:50.244Z,35.59
2023-03-24T03:32:28.441Z,35.78
2023-03-24T03:35:03.363Z,35.67
2023-03-24T03:37:44.860Z,35.82
2023-03-24T03:40:22.028Z,35.63
2023-03-24T03:42:52.485Z,35.85
2023-03-24T03:45:20.968Z,35.76
2023-03-24T03:47:50.447Z,35.82
2023-03-24T03:50:19.310Z,36.11
2023-03-24T03:52:47.824Z,35.97
2023-03-24T03:55:17.055Z,35.89
2023-03-24T03:57:45.912Z,36.02
2023-03-24T04:00:20.029Z,35.92
2023-03-24T04:03:17.650Z,36.13
2023-03-24T04:05:54.051Z,36.10
2023-03-24T04:08:29.777Z,36.14
2023-03-24T04:11:33.635Z,36.04
2023-03-24T04:14:23.763Z,35.94
2023-03-24T04:17:08.926Z,36.12
2023-03-24T04:19:50.953Z,36.09
2023-03-24T04:22:33.452Z,36.13
2023-03-24T04:25:14.377Z,36.08
2023-03-24T04:27:48.824Z,36.31
2023-03-24T04:30:24.671Z,36.23
2023-03-24T04:33:00.343Z,36.37
2023-03-24T04:35:35.530Z,36.17
2023-03-24T04:38:08.794Z,36.21
2023-03-24T04:40:42.208Z,36.10
2023-03-24T04:43:17.574Z,36.29
2023-03-24T04:45:49.815Z,36.35
2023-03-24T04:48:21.443Z,36.29
2023-03-24T04:50:57.253Z,36.62
2023-03-24T04:53:25.662Z,36.40
2023-03-24T04:56:28.427Z,36.44
2023-03-24T04:58:58.757Z,36.46
2023-03-24T05:01:30.306Z,36.54
2023-03-24T05:04:01.191Z,36.50
2023-03-24T05:06:29.671Z,36.67
2023-03-24T05:08:59.185Z,36.65
2023-03-24T05:11:28.312Z,36.71
2023-03-24T05:13:56.924Z,36.67
2023-03-24T05:16:25.394Z,36.60
2023-03-24T05:18:53.858Z,36.64
2023-03-24T05:21:23.694Z,36.89
2023-03-24T05:23:52.126Z,36.77
2023-03-24T05:26:20.559Z,36.75
2023-03-24T05:28:49.024Z,36.86
2023-03-24T05:31:17.582Z,36.75
2023-03-24T05:33:46.238Z,36.74
2023-03-24T05:36:15.041Z,36.76
2023-03-24T05:38:45.054Z,36.67
2023-03-24T05:41:13.472Z,36.47
2023-03-24T05:43:41.903Z,36.49
2023-03-24T05:46:10.479Z,36.36
2023-03-24T05:48:38.919Z,36.16
2023-03-24T05:51:07.999Z,36.24
2023-03-24T05:53:36.737Z,36.31
2023-03-24T05:56:12.056Z,36.21
2023-03-24T05:58:40.528Z,36.16
2023-03-24T06:01:10.764Z,36.34
2023-03-24T06:03:40.589Z,36.31
2023-03-24T06:06:14.973Z,36.24
2023-03-24T06:08:45.168Z,36.39
2023-03-24T06:11:15.576Z,36.19
2023-03-24T06:13:44.007Z,36.04
2023-03-24T06:16:12.996Z,36.23
2023-03-24T06:18:42.797Z,36.10
2023-03-24T06:21:11.373Z,35.97
2023-03-24T06:23:39.841Z,36.02
2023-03-24T06:26:12.594Z,35.88
2023-03-24T06:28:43.314Z,35.74
2023-03-24T06:31:15.258Z,35.79
2023-03-24T06:33:43.873Z,35.71
2023-03-24T06:36:14.081Z,35.85
2023-03-24T06:38:44.008Z,35.59
2023-03-24T06:41:12.713Z,35.58
2023-03-24T06:43:42.589Z,35.44
2023-03-24T06:46:11.319Z,35.52
2023-03-24T06:48:39.869Z,35.47
2023-03-24T06:51:09.267Z,35.38
2023-03-24T06:53:37.891Z,35.31
2023-03-24T06:56:07.596Z,35.21
2023-03-24T06:58:36.118Z,35.08
2023-03-24T07:03:35.713Z,34.97
2023-03-24T07:06:05.129Z,35.00
2023-03-24T07:08:38.031Z,34.64
2023-03-24T07:11:08.941Z,34.54
2023-03-24T07:13:37.623Z,34.72
2023-03-24T07:16:08.625Z,34.69
2023-03-24T07:18:37.135Z,34.64
2023-03-24T07:21:06.076Z,34.45
2023-03-24T07:23:34.778Z,34.35
2023-03-24T07:26:03.234Z,34.19
2023-03-24T07:28:31.665Z,33.88
2023-03-24T07:31:04.061Z,33.95
2023-03-24T07:33:34.703Z,33.66
2023-03-24T07:36:03.231Z,34.04
2023-03-24T07:38:32.407Z,33.92
2023-03-24T07:41:00.893Z,33.57
2023-03-24T07:43:29.325Z,33.32
2023-03-24T07:45:57.881Z,33.50
2023-03-24T07:48:26.372Z,33.53
2023-03-24T07:50:56.447Z,33.04
2023-03-24T07:53:24.914Z,33.44
2023-03-24T07:55:53.345Z,33.11
2023-03-24T07:58:21.805Z,33.06
2023-03-24T08:00:50.597Z,32.81
2023-03-24T08:03:19.435Z,33.02
2023-03-24T08:05:48.707Z,32.83
2023-03-24T08:08:18.603Z,32.59
2023-03-24T08:10:47.421Z,32.64
2023-03-24T08:13:16.029Z,32.46
2023-03-24T08:15:45.063Z,32.54
2023-03-24T08:18:13.607Z,32.55
2023-03-24T08:20:42.079Z,32.47
2023-03-24T08:23:11.204Z,32.25
2023-03-24T08:25:41.430Z,32.13
2023-03-24T08:28:10.234Z,31.88
2023-03-24T08:30:38.756Z,31.79
2023-03-24T08:33:07.321Z,31.78
2023-03-24T08:35:38.897Z,31.97
2023-03-24T08:38:08.955Z,31.86
2023-03-24T08:40:38.926Z,31.97
2023-03-24T08:43:14.027Z,31.77
2023-03-24T08:45:42.941Z,31.69
2023-03-24T08:48:11.581Z,31.58
2023-03-24T08:50:42.832Z,31.65
2023-03-24T08:53:12.527Z,31.40
2023-03-24T08:55:43.207Z,31.34
2023-03-24T08:58:16.010Z,31.28
2023-03-24T09:00:46.503Z,31.03
2023-03-24T09:03:18.544Z,30.96
2023-03-24T09:05:48.347Z,30.81
2023-03-24T09:08:19.337Z,30.66
2023-03-24T09:10:48.309Z,30.19
2023-03-24T09:13:20.390Z,30.22
2023-03-24T09:15:50.214Z,30.14
2023-03-24T09:18:21.038Z,29.88
2023-03-24T09:20:49.898Z,30.05
2023-03-24T09:23:19.186Z,29.98
2023-03-24T09:25:50.321Z,29.83
2023-03-24T09:28:20.471Z,29.58
2023-03-24T09:30:49.630Z,29.58
2023-03-24T09:33:18.931Z,29.57
2023-03-24T09:35:47.371Z,29.12
2023-03-24T09:38:15.946Z,29.04
2023-03-24T09:40:44.460Z,28.72
2023-03-24T09:43:26.225Z,29.01
2023-03-24T09:45:58.301Z,28.76
2023-03-24T09:48:37.628Z,28.56
2023-03-24T09:51:10.163Z,28.34
2023-03-24T09:53:47.905Z,28.84
2023-03-24T09:56:20.634Z,28.45
2023-03-24T09:59:02.012Z,28.21
2023-03-24T10:01:30.639Z,28.49
2023-03-24T10:04:01.318Z,28.10
2023-03-24T10:06:38.659Z,28.32
2023-03-24T10:09:22.964Z,28.28
2023-03-24T10:12:12.367Z,28.23
2023-03-24T10:15:16.197Z,27.83
2023-03-24T10:17:57.925Z,28.01
2023-03-24T10:20:36.133Z,27.93
2023-03-24T10:23:22.995Z,27.25
2023-03-24T10:25:57.556Z,27.49
2023-03-24T10:28:35.469Z,27.33
2023-03-24T10:31:12.979Z,27.38
2023-03-24T10:33:44.964Z,26.71
2023-03-24T10:36:18.179Z,26.48
2023-03-24T10:38:47.456Z,26.84
2023-03-24T10:41:19.756Z,26.13
2023-03-24T10:43:51.850Z,26.66
2023-03-24T10:46:26.095Z,26.45
2023-03-24T10:48:56.344Z,26.25
2023-03-24T10:51:28.962Z,26.03
2023-03-24T10:54:13.957Z,26.15
2023-03-24T10:56:45.212Z,25.99
2023-03-24T10:59:28.884Z,25.50
2023-03-24T11:02:18.609Z,25.51
2023-03-24T11:04:55.599Z,25.11
2023-03-24T11:07:26.122Z,24.99
2023-03-24T11:10:08.332Z,25.00
2023-03-24T11:12:39.785Z,24.73
2023-03-24T11:15:23.021Z,24.73
2023-03-24T11:17:58.661Z,24.69
2023-03-24T11:20:32.593Z,24.97
2023-03-24T11:23:05.363Z,24.58
2023-03-24T11:25:36.962Z,24.42
2023-03-24T11:28:10.385Z,24.37
2023-03-24T11:30:48.470Z,24.20
2023-03-24T11:33:35.856Z,23.36
2023-03-24T11:36:30.612Z,23.49
2023-03-24T11:39:10.984Z,23.54
2023-03-24T11:41:42.193Z,23.20
2023-03-24T11:44:20.022Z,23.04
2023-03-24T11:46:53.829Z,22.66
2023-03-24T11:49:28.616Z,22.56
2023-03-24T11:51:57.545Z,22.61
2023-03-24T11:54:33.142Z,22.54
2023-03-24T11:57:08.532Z,22.34
2023-03-24T11:59:43.431Z,22.35
2023-03-24T12:02:25.552Z,22.51
2023-03-24T12:05:28.295Z,22.55
2023-03-24T12:08:14.900Z,22.53
2023-03-24T12:10:56.486Z,22.30
2023-03-24T12:13:36.607Z,22.17
2023-03-24T12:16:40.241Z,22.01
2023-03-24T12:19:42.279Z,21.77
2023-03-24T12:22:29.207Z,21.55
2023-03-24T12:25:22.776Z,21.48
2023-03-24T12:28:03.305Z,21.24
2023-03-24T12:30:38.276Z,21.44
2023-03-24T12:33:28.310Z,21.12
2023-03-24T12:36:21.906Z,21.32
2023-03-24T12:39:06.058Z,21.12
2023-03-24T12:41:50.069Z,21.32
2023-03-24T12:44:59.665Z,21.00
2023-03-24T12:48:03.824Z,21.21
2023-03-24T12:50:54.565Z,20.95
2023-03-24T12:53:42.770Z,20.29
2023-03-24T12:56:19.450Z,20.60
2023-03-24T12:58:53.454Z,20.25
2023-03-24T13:01:29.525Z,20.35
2023-03-24T13:04:08.037Z,20.86
2023-03-24T13:06:46.069Z,20.76
2023-03-24T13:09:29.697Z,20.91
2023-03-24T13:12:05.884Z,20.95
2023-03-24T13:14:47.758Z,21.07
2023-03-24T13:17:22.578Z,21.22
2023-03-24T13:19:53.083Z,21.42
2023-03-24T13:22:24.336Z,21.35
2023-03-24T13:24:55.394Z,21.51
2023-03-24T13:27:29.587Z,21.47
2023-03-24T13:30:21.972Z,21.44
2023-03-24T13:32:54.933Z,21.29
2023-03-24T13:35:42.348Z,21.23
2023-03-24T13:38:19.640Z,21.09
2023-03-24T13:40:53.256Z,20.75
2023-03-24T13:43:26.140Z,20.98
2023-03-24T13:46:03.224Z,20.87
2023-03-24T13:48:37.755Z,20.59
2023-03-24T13:51:17.399Z,20.66
2023-03-24T13:53:54.308Z,20.12
2023-03-24T13:56:28.944Z,19.72
2023-03-24T13:59:31.680Z,20.08
2023-03-24T14:02:49.741Z,20.07
2023-03-24T14:05:59.404Z,20.37
2023-03-24T14:08:45.338Z,20.24
2023-03-24T14:12:18.716Z,20.40
2023-03-24T14:15:21.356Z,20.60
2023-03-24T14:17:54.825Z,20.61
2023-03-24T14:20:36.114Z,20.56
2023-03-24T14:23:05.434Z,20.59
2023-03-24T14:25:36.897Z,20.80
2023-03-24T14:28:23.144Z,20.99
2023-03-24T14:31:10.055Z,21.26
2023-03-24T14:33:40.948Z,21.59
2023-03-24T14:36:12.228Z,22.16
2023-03-24T14:38:44.279Z,22.17
2023-03-24T14:41:17.276Z,22.55
2023-03-24T14:44:00.651Z,22.99
2023-03-24T14:46:50.400Z,23.70
2023-03-24T14:49:28.007Z,23.48
2023-03-24T14:52:09.948Z,24.25
2023-03-24T14:54:44.117Z,24.41
2023-03-24T14:57:20.212Z,24.93
2023-03-24T14:59:53.837Z,25.48
2023-03-24T15:02:37.111Z,25.80
2023-03-24T15:05:26.177Z,26.26
2023-03-24T15:08:13.840Z,26.34
2023-03-24T15:10:48.319Z,26.62
2023-03-24T15:13:34.154Z,27.30
2023-03-24T15:16:06.726Z,27.48
2023-03-24T15:18:44.192Z,28.13
2023-03-24T15:21:27.151Z,27.66
2023-03-24T15:23:57.216Z,27.69
2023-03-24T15:26:28.432Z,28.51
2023-03-24T15:28:59.231Z,28.39
2023-03-24T15:31:31.325Z,28.75
2023-03-24T15:34:25.409Z,28.86
2023-03-24T15:36:56.586Z,29.00
2023-03-24T15:39:29.277Z,29.48
2023-03-24T15:41:57.830Z,30.29
2023-03-24T15:44:30.999Z,30.74
2023-03-24T15:47:01.545Z,31.44
2023-03-24T15:49:35.652Z,32.06
2023-03-24T15:52:25.003Z,31.93
2023-03-24T15:54:56.100Z,33.60
2023-03-24T15:57:26.169Z,34.66
2023-03-24T16:00:11.905Z,34.20
2023-03-24T16:02:46.727Z,34.75
2023-03-24T16:05:25.381Z,36.10
2023-03-24T16:07:59.412Z,35.91
2023-03-24T16:10:34.100Z,36.58
2023-03-24T16:13:16.665Z,36.66
2023-03-24T16:15:48.233Z,37.21
2023-03-24T16:18:26.088Z,36.81
2023-03-24T16:20:56.194Z,37.18
2023-03-24T16:23:26.300Z,36.98
2023-03-24T16:25:55.381Z,36.55
2023-03-24T16:28:25.238Z,36.70
2023-03-24T16:31:01.313Z,36.35
2023-03-24T16:33:30.810Z,36.41
2023-03-24T16:36:01.115Z,36.64
2023-03-24T16:38:29.808Z,36.77
2023-03-24T16:40:58.978Z,37.19
2023-03-24T16:43:29.781Z,37.85
2023-03-24T16:45:58.415Z,38.47
2023-03-24T16:48:28.172Z,39.05
2023-03-24T16:50:58.218Z,39.13
2023-03-24T16:53:28.466Z,40.41
2023-03-24T16:55:56.993Z,39.87
2023-03-24T16:58:25.887Z,40.15
2023-03-24T17:00:56.468Z,40.28
2023-03-24T17:03:25.195Z,40.53
2023-03-24T17:05:54.058Z,40.63
2023-03-24T17:08:22.665Z,40.51
2023-03-24T17:10:55.138Z,40.79
2023-03-24T17:13:26.755Z,40.71
2023-03-24T17:15:56.149Z,40.48
2023-03-24T17:18:26.752Z,40.45
2023-03-24T17:20:55.748Z,40.67
2023-03-24T17:23:25.877Z,40.35
2023-03-24T17:25:58.250Z,41.03
2023-03-24T17:28:27.217Z,41.36
2023-03-24T17:30:57.131Z,41.35
2023-03-24T17:33:25.887Z,41.03
2023-03-24T17:35:56.483Z,41.35
2023-03-24T17:38:26.242Z,41.24
2023-03-24T17:41:05.772Z,41.19
2023-03-24T17:43:35.605Z,41.01
2023-03-24T17:46:07.925Z,40.91
2023-03-24T17:48:37.516Z,40.84
2023-03-24T17:51:08.992Z,40.92
2023-03-24T17:53:38.090Z,40.88
2023-03-24T17:56:12.663Z,41.22
2023-03-24T17:58:47.566Z,41.00
2023-03-24T18:01:18.738Z,40.99
2023-03-24T18:03:50.160Z,40.74
2023-03-24T18:06:20.355Z,41.75
2023-03-24T18:08:52.232Z,41.55
2023-03-24T18:11:22.974Z,41.53
2023-03-24T18:13:55.116Z,41.75
2023-03-24T18:16:27.285Z,42.15
2023-03-24T18:19:01.091Z,42.39
2023-03-24T18:21:31.972Z,42.84
2023-03-24T18:24:02.248Z,42.78
2023-03-24T18:26:34.354Z,43.05
2023-03-24T18:29:06.169Z,43.32
2023-03-24T18:31:36.417Z,43.58
2023-03-24T18:34:06.801Z,43.73
2023-03-24T18:36:36.540Z,43.63
2023-03-24T18:39:08.700Z,43.81
2023-03-24T18:41:41.509Z,43.99
2023-03-24T18:44:16.092Z,44.15
2023-03-24T18:46:46.428Z,44.36
2023-03-24T18:49:17.048Z,44.76
2023-03-24T18:51:47.030Z,44.65
2023-03-24T18:54:17.079Z,44.78
2023-03-24T18:56:49.208Z,44.46
2023-03-24T18:59:18.523Z,44.83
2023-03-24T19:01:51.485Z,44.85
2023-03-24T19:04:22.247Z,44.71
2023-03-24T19:06:52.803Z,44.76
2023-03-24T19:09:23.583Z,45.07
2023-03-24T19:11:55.985Z,45.24
2023-03-24T19:14:27.160Z,45.37
2023-03-24T19:17:02.842Z,45.63
2023-03-24T19:19:33.134Z,45.64
2023-03-24T19:22:04.211Z,45.79
2023-03-24T19:24:35.390Z,45.56
2023-03-24T19:27:09.199Z,45.64
2023-03-24T19:29:42.568Z,45.57
2023-03-24T19:32:14.754Z,45.54
2023-03-24T19:34:49.213Z,45.44
2023-03-24T19:37:22.125Z,45.53
2023-03-24T19:39:52.983Z,45.34
2023-03-24T19:42:34.115Z,45.41
2023-03-24T19:45:03.850Z,45.52
2023-03-24T19:47:34.709Z,45.29
2023-03-24T19:50:07.277Z,45.52
2023-03-24T19:52:43.189Z,45.39
2023-03-24T19:55:15.343Z,45.68
2023-03-24T19:57:47.893Z,45.70
2023-03-24T20:00:20.400Z,45.99
2023-03-24T20:02:50.295Z,45.94
2023-03-24T20:05:23.878Z,46.02
2023-03-24T20:07:56.067Z,45.92
2023-03-24T20:10:27.390Z,46.04
2023-03-24T20:13:00.513Z,46.08
2023-03-24T20:15:30.916Z,46.14
2023-03-24T20:18:01.271Z,46.26
2023-03-24T20:20:32.295Z,46.14
2023-03-24T20:23:05.284Z,46.21
2023-03-24T20:25:36.148Z,46.16
2023-03-24T20:28:09.889Z,46.38
2023-03-24T20:30:45.928Z,46.24
2023-03-24T20:33:19.291Z,46.39
2023-03-24T20:35:50.377Z,46.30
2023-03-24T20:38:22.506Z,46.27
2023-03-24T20:41:02.873Z,46.20
2023-03-24T20:43:37.009Z,46.18
2023-03-24T20:46:14.646Z,46.12
2023-03-24T20:48:44.590Z,46.02
2023-03-24T20:51:18.868Z,45.91
2023-03-24T20:53:49.942Z,45.65
2023-03-24T20:56:21.649Z,45.46
2023-03-24T20:58:53.731Z,45.36
2023-03-24T21:01:25.223Z,45.47
2023-03-24T21:04:00.143Z,45.30
2023-03-24T21:06:39.880Z,45.51
2023-03-24T21:09:10.402Z,45.07
2023-03-24T21:11:42.074Z,45.13
2023-03-24T21:14:14.953Z,45.09
2023-03-24T21:16:44.822Z,45.00
2023-03-24T21:19:14.811Z,44.91
2023-03-24T21:21:44.953Z,44.95
2023-03-24T21:24:17.484Z,44.72
2023-03-24T21:26:49.878Z,44.71
2023-03-24T21:29:22.993Z,44.54
2023-03-24T21:31:53.077Z,44.63
2023-03-24T21:34:22.371Z,44.41
2023-03-24T21:36:56.107Z,43.96
2023-03-24T21:39:25.167Z,43.97
2023-03-24T21:41:55.201Z,43.88
2023-03-24T21:44:25.583Z,43.71
2023-03-24T21:46:54.489Z,43.46
2023-03-24T21:49:23.141Z,43.35
2023-03-24T21:51:55.092Z,43.13
2023-03-24T21:54:23.658Z,42.87
2023-03-24T21:56:52.165Z,42.91
2023-03-24T21:59:20.672Z,42.88
2023-03-24T22:01:52.316Z,42.64
2023-03-24T22:04:20.825Z,41.84
2023-03-24T22:06:49.268Z,41.68
2023-03-24T22:09:19.173Z,41.59
2023-03-24T22:11:47.675Z,41.51
2023-03-24T22:14:16.376Z,41.53
2023-03-24T22:16:44.806Z,41.46
2023-03-24T22:19:14.670Z,40.91
2023-03-24T22:21:43.096Z,41.92
2023-03-24T22:24:11.564Z,41.83
2023-03-24T22:26:39.982Z,41.78
2023-03-24T22:29:08.419Z,40.88
2023-03-24T22:31:42.093Z,40.68
2023-03-24T22:34:10.686Z,40.59
2023-03-24T22:36:40.495Z,40.37
2023-03-24T22:39:09.922Z,40.46
2023-03-24T22:41:38.388Z,40.53
2023-03-24T22:44:07.518Z,40.22
2023-03-24T22:46:36.027Z,40.10
2023-03-24T22:49:04.607Z,39.92
2023-03-24T22:51:33.502Z,39.27
2023-03-24T22:54:04.230Z,39.24
2023-03-24T22:56:32.711Z,39.40
2023-03-24T22:59:01.150Z,39.45
2023-03-24T23:01:29.679Z,39.31
2023-03-24T23:03:58.102Z,39.08
2023-03-24T23:06:28.101Z,38.96
2023-03-24T23:08:57.084Z,38.91
2023-03-24T23:11:27.106Z,39.02
2023-03-24T23:14:02.379Z,39.03
2023-03-24T23:16:30.883Z,38.86
2023-03-24T23:18:59.324Z,38.78
2023-03-24T23:21:28.527Z,38.98
2023-03-24T23:23:57.125Z,38.70
2023-03-24T23:26:27.119Z,38.77
2023-03-24T23:28:55.650Z,38.69
2023-03-24T23:31:28.565Z,38.69
2023-03-24T23:33:58.963Z,38.63
2023-03-24T23:36:28.489Z,38.81
2023-03-24T23:38:57.143Z,38.59
2023-03-24T23:41:27.058Z,38.52
2023-03-24T23:43:55.889Z,38.88
2023-03-24T23:46:25.901Z,38.83
2023-03-24T23:48:54.590Z,38.98
2023-03-24T23:51:23.039Z,38.80
2023-03-24T23:53:51.537Z,38.78
2023-03-24T23:56:21.493Z,38.94
2023-03-24T23:58:51.434Z,38.75
